Time;durP1;ratioP1;P1;durP2;ratioP2;P2;SDS_P1;SDS_P2;PMS_P1;PMS_P2;Temp;Humidity;BMP_temperature;BMP_pressure;BME280_temperature;BME280_humidity;BME280_pressure;Samples;Min_cycle;Max_cycle;Signal;HPM_P1;HPM_P2
2024/02/26 00:01:33;;;;;;;7.88;4.00;;;;;;;3.00;71.78;91279.75;2065130;69;20165;-75
2024/02/26 00:03:59;;;;;;;6.88;3.55;;;;;;;3.18;70.94;91280.22;2064924;69;20228;-75
2024/02/26 00:06:25;;;;;;;5.25;3.30;;;;;;;2.84;71.99;91267.56;2064793;69;20235;-74
2024/02/26 00:08:51;;;;;;;6.15;2.70;;;;;;;2.79;72.08;91256.22;2065191;69;20171;-75
2024/02/26 00:11:18;;;;;;;5.03;2.97;;;;;;;3.11;71.79;91270.72;2064665;69;20250;-75
2024/02/26 00:13:43;;;;;;;7.80;4.47;;;;;;;2.94;72.74;91287.72;2064695;69;20583;-75
2024/02/26 00:16:10;;;;;;;5.78;2.42;;;;;;;2.91;72.46;91267.38;2065084;69;20604;-75
2024/02/26 00:18:37;;;;;;;5.75;2.90;;;;;;;3.07;71.79;91270.50;2064926;69;20133;-75
2024/02/26 00:21:03;;;;;;;7.25;3.58;;;;;;;2.79;72.91;91274.91;2064387;69;20149;-75
2024/02/26 00:23:29;;;;;;;7.25;3.20;;;;;;;2.91;72.60;91269.44;2061740;69;20145;-73
2024/02/26 00:25:54;;;;;;;7.30;3.83;;;;;;;2.96;72.27;91266.31;2065122;69;20167;-74
2024/02/26 00:28:21;;;;;;;7.18;3.88;;;;;;;2.73;73.25;91269.69;2064947;69;20145;-75
2024/02/26 00:30:48;;;;;;;8.40;3.85;;;;;;;3.01;72.82;91264.53;2065091;69;20179;-75
2024/02/26 00:33:17;;;;;;;6.28;3.45;;;;;;;2.78;73.64;91259.56;2064270;69;20152;-74
2024/02/26 00:35:42;;;;;;;4.65;2.50;;;;;;;2.59;74.62;91260.44;2065101;69;20524;-75
2024/02/26 00:38:08;;;;;;;4.18;2.00;;;;;;;2.87;73.36;91263.59;2064464;69;20168;-75
2024/02/26 00:40:34;;;;;;;5.28;2.20;;;;;;;2.91;72.73;91270.16;2065146;69;20160;-76
2024/02/26 00:43:00;;;;;;;4.30;2.22;;;;;;;2.86;72.54;91276.78;2065212;69;20173;-75
2024/02/26 00:45:25;;;;;;;4.85;2.30;;;;;;;2.95;72.27;91266.91;2064847;69;20157;-75
2024/02/26 00:47:51;;;;;;;4.32;2.30;;;;;;;2.96;71.83;91271.88;2064418;69;20561;-75
2024/02/26 00:50:16;;;;;;;6.43;2.60;;;;;;;2.91;71.64;91256.25;2064840;69;20145;-75
2024/02/26 00:52:42;;;;;;;4.38;2.30;;;;;;;2.79;72.54;91270.13;2064912;69;20157;-76
2024/02/26 00:55:09;;;;;;;3.05;2.03;;;;;;;2.62;73.84;91264.81;2065143;69;20904;-75
2024/02/26 00:57:34;;;;;;;3.55;2.20;;;;;;;2.71;73.45;91252.19;2065339;69;20252;-76
2024/02/26 01:00:01;;;;;;;3.42;2.00;;;;;;;2.40;75.23;91266.09;2065515;69;20143;-75
2024/02/26 01:02:27;;;;;;;3.00;1.98;;;;;;;2.75;73.35;91266.34;2065669;69;20175;-75
2024/02/26 01:04:52;;;;;;;3.30;2.00;;;;;;;2.74;73.13;91256.53;2065326;69;20157;-76
2024/02/26 01:07:19;;;;;;;5.30;2.15;;;;;;;2.84;72.96;91250.91;2065302;69;20239;-75
2024/02/26 01:09:44;;;;;;;3.97;2.00;;;;;;;2.94;72.38;91252.31;2065556;69;20223;-75
2024/02/26 01:12:10;;;;;;;4.45;2.17;;;;;;;2.85;72.69;91244.03;2062231;69;20161;-75
2024/02/26 01:14:36;;;;;;;3.95;1.90;;;;;;;2.34;75.44;91246.97;2065442;69;20497;-75
2024/02/26 01:17:02;;;;;;;3.92;1.90;;;;;;;2.73;74.41;91249.53;2065551;69;20592;-75
2024/02/26 01:19:28;;;;;;;5.85;2.53;;;;;;;2.89;73.49;91231.13;2064913;69;20164;-75
2024/02/26 01:21:53;;;;;;;4.05;1.90;;;;;;;2.48;72.92;91161.81;2065332;69;20223;-75
2024/02/26 01:24:19;;;;;;;11.20;2.10;;;;;;;2.73;73.81;91230.78;2065175;69;20160;-75
2024/02/26 01:30:32;;;;;;;4.38;2.00;;;;;;;2.65;74.46;91227.47;2065425;69;20167;-74
2024/02/26 01:32:57;;;;;;;3.03;1.70;;;;;;;2.24;76.22;91235.19;2065493;69;20196;-75
2024/02/26 01:35:23;;;;;;;3.42;1.52;;;;;;;2.73;74.47;91224.50;2065624;69;20501;-74
2024/02/26 01:37:49;;;;;;;3.05;1.40;;;;;;;2.85;73.73;91233.63;2064892;69;20236;-74
2024/02/26 01:40:19;;;;;;;4.55;2.08;;;;;;;2.14;77.11;91234.50;2065406;69;20162;-74
2024/02/26 01:42:48;;;;;;;5.93;1.90;;;;;;;2.55;75.00;91224.03;2065545;69;20145;-74
2024/02/26 01:45:26;;;;;;;3.92;1.80;;;;;;;2.40;75.21;91185.56;2065246;69;20148;-75
2024/02/26 01:47:53;;;;;;;6.10;1.60;;;;;;;2.06;75.69;91220.81;2064746;69;20298;-74
2024/02/26 01:50:19;;;;;;;2.58;1.65;;;;;;;2.16;77.38;91235.38;2064541;69;20168;-74
2024/02/26 01:56:34;;;;;;;3.20;1.90;;;;;;;2.42;75.22;91221.78;2065248;69;20698;-74
2024/02/26 01:59:09;;;;;;;2.13;1.60;;;;;;;2.66;74.96;91226.19;2064665;69;20149;-75
2024/02/26 02:01:35;;;;;;;2.70;1.42;;;;;;;2.75;74.83;91222.59;2064738;69;20156;-74
2024/02/26 02:04:01;;;;;;;2.53;1.40;;;;;;;2.62;74.55;91220.34;2065238;69;20149;-75
2024/02/26 02:06:30;;;;;;;2.88;1.70;;;;;;;2.54;75.58;91212.19;2064265;69;20159;-74
2024/02/26 02:08:56;;;;;;;2.78;1.70;;;;;;;2.64;75.12;91216.97;2065411;69;20573;-74
2024/02/26 02:11:21;;;;;;;3.60;1.60;;;;;;;2.40;75.59;91216.09;2065213;69;20219;-74
2024/02/26 02:13:47;;;;;;;2.60;1.60;;;;;;;2.57;75.52;91204.00;2065358;69;20836;-74
2024/02/26 02:16:13;;;;;;;1.80;1.50;;;;;;;2.49;75.82;91221.59;2064852;69;20540;-74
2024/02/26 02:18:39;;;;;;;3.60;1.52;;;;;;;2.23;76.86;91219.84;2065185;69;20298;-75
2024/02/26 02:21:04;;;;;;;2.75;1.60;;;;;;;2.55;74.92;91201.81;2065393;69;20157;-75
2024/02/26 02:23:30;;;;;;;2.22;1.50;;;;;;;2.57;74.68;91218.63;2065389;69;20144;-74
2024/02/26 02:25:57;;;;;;;4.53;1.77;;;;;;;2.50;75.13;91211.94;2062055;69;20136;-74
2024/02/26 02:28:25;;;;;;;3.33;1.80;;;;;;;2.70;74.34;91211.78;2065516;69;20145;-74
2024/02/26 02:30:51;;;;;;;4.93;1.92;;;;;;;2.14;76.83;91218.56;2065162;69;20160;-74
2024/02/26 02:33:17;;;;;;;3.20;1.88;;;;;;;2.51;75.64;91216.16;2065149;69;20498;-74
2024/02/26 02:35:42;;;;;;;2.38;1.50;;;;;;;2.59;75.22;91209.69;2065265;69;20171;-74
2024/02/26 02:38:08;;;;;;;2.53;1.67;;;;;;;2.38;75.40;91213.91;2065370;69;20153;-74
2024/02/26 02:40:34;;;;;;;2.58;1.85;;;;;;;2.42;76.27;91216.94;2065384;69;20152;-74
2024/02/26 02:43:01;;;;;;;2.45;1.60;;;;;;;2.64;74.75;91219.75;2065039;69;20144;-74
2024/02/26 02:45:30;;;;;;;3.25;1.70;;;;;;;2.03;76.74;91214.41;2065319;69;20662;-74
2024/02/26 02:47:57;;;;;;;5.05;1.80;;;;;;;2.51;75.60;91213.38;2065117;69;20164;-74
2024/02/26 02:50:23;;;;;;;3.05;1.80;;;;;;;2.67;74.65;91226.91;2065295;69;20656;-74
2024/02/26 02:52:49;;;;;;;2.33;1.60;;;;;;;2.65;74.48;91215.63;2065380;69;20216;-74
2024/02/26 02:55:16;;;;;;;3.28;1.90;;;;;;;2.69;73.95;91205.50;2065302;69;20172;-74
2024/02/26 02:57:42;;;;;;;3.60;2.20;;;;;;;2.01;76.44;91214.25;2063799;69;20172;-74
2024/02/26 03:00:11;;;;;;;6.20;1.70;;;;;;;2.22;76.84;91218.41;2065315;69;20182;-74
2024/02/26 03:02:37;;;;;;;2.92;1.77;;;;;;;2.47;75.69;91220.72;2064739;69;20236;-74
2024/02/26 03:05:05;;;;;;;2.70;1.80;;;;;;;2.19;76.10;91214.75;2065217;69;20137;-74
2024/02/26 03:07:30;;;;;;;3.25;1.95;;;;;;;2.36;75.81;91213.06;2065173;69;20183;-75
2024/02/26 03:09:56;;;;;;;2.70;1.58;;;;;;;2.43;75.48;91203.78;2065094;69;20236;-75
2024/02/26 03:16:09;;;;;;;2.47;1.70;;;;;;;2.66;74.03;91215.06;2065332;69;20147;-75
2024/02/26 03:18:35;;;;;;;3.97;2.00;;;;;;;2.57;74.86;91212.31;2064404;69;20166;-75
2024/02/26 03:21:02;;;;;;;3.95;1.90;;;;;;;2.62;74.73;91209.25;2065148;69;20206;-75
2024/02/26 03:23:29;;;;;;;4.95;1.88;;;;;;;2.61;73.93;91198.69;2061853;69;20296;-74
2024/02/26 03:25:55;;;;;;;2.53;1.60;;;;;;;2.66;73.57;91194.88;2064847;69;20166;-74
2024/02/26 03:28:21;;;;;;;2.50;1.80;;;;;;;2.33;76.41;91201.06;2061997;69;20168;-74
2024/02/26 03:30:48;;;;;;;1.90;1.40;;;;;;;2.54;75.12;91201.09;2065240;69;20159;-74
2024/02/26 03:33:13;;;;;;;1.60;1.30;;;;;;;2.58;74.88;91199.91;2065158;69;20156;-74
2024/02/26 03:35:40;;;;;;;2.30;1.80;;;;;;;1.94;77.92;91197.78;2064714;69;20287;-75
2024/02/26 03:38:06;;;;;;;2.17;1.70;;;;;;;2.42;76.25;91199.56;2065288;69;20145;-74
2024/02/26 03:40:32;;;;;;;3.83;1.90;;;;;;;2.59;74.65;91198.59;2064477;69;20129;-75
2024/02/26 03:42:58;;;;;;;4.35;1.73;;;;;;;1.85;77.08;91195.78;2065151;69;20583;-75
2024/02/26 03:45:25;;;;;;;4.18;1.88;;;;;;;2.41;75.65;91198.84;2064522;69;20141;-75
2024/02/26 03:47:52;;;;;;;2.90;1.60;;;;;;;2.37;75.30;91200.63;2064274;69;20191;-75
2024/02/26 03:50:18;;;;;;;4.88;1.90;;;;;;;1.84;77.82;91208.94;2064949;69;20149;-75
2024/02/26 03:52:44;;;;;;;5.40;1.80;;;;;;;2.40;76.45;91182.78;2065048;69;20141;-75
2024/02/26 03:55:10;;;;;;;2.35;1.70;;;;;;;2.43;75.26;91185.09;2064587;69;20156;-75
2024/02/26 03:57:36;;;;;;;2.53;2.08;;;;;;;1.99;77.96;91191.91;2065025;69;20153;-75
2024/02/26 04:00:03;;;;;;;2.42;1.95;;;;;;;2.42;76.29;91178.06;2063382;69;20608;-75
2024/02/26 04:02:36;;;;;;;2.97;2.00;;;;;;;2.41;76.26;91187.72;2064656;69;20145;-74
2024/02/26 04:05:02;;;;;;;3.72;1.90;;;;;;;2.47;75.65;91179.78;2065095;69;20195;-75
2024/02/26 04:07:27;;;;;;;3.80;1.85;;;;;;;2.57;75.13;91170.66;2065161;69;20575;-74
2024/02/26 04:09:54;;;;;;;3.97;2.08;;;;;;;2.54;75.17;91173.31;2065167;69;20156;-75
2024/02/26 04:12:20;;;;;;;3.03;1.85;;;;;;;2.35;75.96;91162.34;2065154;69;20203;-74
2024/02/26 04:14:46;;;;;;;2.88;2.08;;;;;;;2.64;74.71;91167.69;2065126;69;20544;-75
2024/02/26 04:17:12;;;;;;;9.07;5.03;;;;;;;2.62;74.43;91161.28;2064937;69;20148;-74
2024/02/26 04:19:38;;;;;;;4.97;2.70;;;;;;;2.37;75.57;91168.03;2065040;69;20156;-75
2024/02/26 04:22:04;;;;;;;3.25;2.30;;;;;;;2.58;74.74;91178.41;2065131;69;20157;-75
2024/02/26 04:24:30;;;;;;;3.85;2.17;;;;;;;2.65;74.57;91176.75;2064879;69;20152;-74
2024/02/26 04:26:55;;;;;;;3.63;2.10;;;;;;;2.59;74.61;91168.75;2064289;69;20613;-74
2024/02/26 04:29:21;;;;;;;4.57;2.40;;;;;;;2.63;75.00;91169.00;2064554;69;20520;-75
2024/02/26 04:31:47;;;;;;;4.03;2.50;;;;;;;2.52;74.63;91184.31;2065319;69;20144;-75
2024/02/26 04:34:13;;;;;;;4.88;2.42;;;;;;;2.47;75.94;91176.28;2065252;69;20144;-75
2024/02/26 04:36:42;;;;;;;4.35;2.58;;;;;;;2.54;75.10;91186.47;2064918;69;20169;-75
2024/02/26 04:39:08;;;;;;;5.35;2.30;;;;;;;1.91;77.96;91194.16;2065381;69;20605;-75
2024/02/26 04:41:34;;;;;;;5.35;2.80;;;;;;;2.50;75.93;91195.28;2065360;69;20155;-76
2024/02/26 04:43:59;;;;;;;6.15;3.95;;;;;;;2.65;75.59;91191.34;2062024;69;20245;-75
2024/02/26 04:46:25;;;;;;;5.47;3.60;;;;;;;2.69;75.32;91194.41;2065358;69;20176;-75
2024/02/26 04:48:51;;;;;;;4.70;3.13;;;;;;;2.63;75.20;91190.50;2065422;69;20157;-76
2024/02/26 04:51:16;;;;;;;5.88;2.33;;;;;;;2.77;74.19;91186.59;2065357;69;20141;-75
2024/02/26 04:57:29;;;;;;;10.35;4.70;;;;;;;2.49;75.92;91182.72;2065382;69;20145;-75
2024/02/26 04:59:55;;;;;;;11.10;5.25;;;;;;;2.63;75.64;91194.00;2065519;69;20140;-74
2024/02/26 05:02:21;;;;;;;12.70;5.25;;;;;;;2.79;74.77;91185.97;2064420;69;20145;-76
2024/02/26 05:04:47;;;;;;;8.68;4.63;;;;;;;2.46;76.42;91177.63;2065433;69;20172;-75
2024/02/26 05:07:14;;;;;;;12.27;6.30;;;;;;;2.49;77.13;91176.44;2065508;69;20148;-75
2024/02/26 05:09:40;;;;;;;11.48;6.60;;;;;;;2.78;75.53;91184.53;2065377;69;20208;-75
2024/02/26 05:15:53;;;;;;;10.55;5.05;;;;;;;2.53;76.90;91185.75;2065691;69;20127;-76
2024/02/26 05:18:23;;;;;;;10.07;5.10;;;;;;;2.66;75.79;91195.63;2064983;69;20156;-76
2024/02/26 05:20:49;;;;;;;10.00;5.22;;;;;;;2.44;76.52;91196.94;2065202;69;20168;-76
2024/02/26 05:23:17;;;;;;;8.07;4.53;;;;;;;2.47;76.62;91188.13;2065600;69;20144;-75
2024/02/26 05:25:45;;;;;;;8.55;4.30;;;;;;;2.62;76.20;91202.97;2065412;69;20604;-76
2024/02/26 05:28:11;;;;;;;8.07;4.25;;;;;;;2.46;75.64;91194.28;2064789;69;20153;-75
2024/02/26 05:30:36;;;;;;;9.07;5.88;;;;;;;2.06;78.68;91200.66;2064980;69;20229;-75
2024/02/26 05:36:49;;;;;;;11.57;6.25;;;;;;;2.31;76.25;91200.97;2065270;69;20175;-75
2024/02/26 05:39:16;;;;;;;10.82;5.78;;;;;;;2.48;75.75;91197.19;2065284;69;20149;-75
2024/02/26 05:41:43;;;;;;;9.82;6.57;;;;;;;2.54;75.57;91198.31;2065275;69;20607;-76
2024/02/26 05:44:11;;;;;;;10.13;5.18;;;;;;;2.54;74.99;91198.31;2064838;69;20679;-76
2024/02/26 05:46:36;;;;;;;11.27;5.35;;;;;;;2.36;76.08;91205.44;2065464;69;20163;-75
2024/02/26 05:49:03;;;;;;;9.32;6.07;;;;;;;2.38;76.74;91216.69;2065552;69;20149;-75
2024/02/26 05:51:30;;;;;;;9.23;6.15;;;;;;;2.54;75.70;91206.66;2062260;69;20194;-76
2024/02/26 05:53:55;;;;;;;9.70;6.18;;;;;;;2.51;75.77;91216.16;2064720;69;20236;-75
2024/02/26 05:56:22;;;;;;;14.13;8.10;;;;;;;2.01;77.84;91221.84;2064996;69;20140;-77
2024/02/26 05:58:48;;;;;;;14.23;7.97;;;;;;;2.37;77.32;91223.56;2065424;69;20141;-75
2024/02/26 06:01:15;;;;;;;16.25;8.77;;;;;;;2.28;76.35;91194.53;2065336;69;20145;-74
2024/02/26 06:03:40;;;;;;;11.20;6.68;;;;;;;2.40;76.39;91225.16;2065353;69;20145;-76
2024/02/26 06:06:06;;;;;;;12.43;6.07;;;;;;;2.16;77.98;91238.16;2064684;69;20141;-75
2024/02/26 06:08:32;;;;;;;12.45;6.38;;;;;;;2.46;77.05;91230.38;2065337;69;20145;-76
2024/02/26 06:10:57;;;;;;;9.63;5.93;;;;;;;2.57;76.60;91231.78;2064537;69;20152;-76
2024/02/26 06:13:23;;;;;;;10.45;5.60;;;;;;;2.31;76.94;91223.16;2065277;69;20228;-76
2024/02/26 06:15:48;;;;;;;9.57;5.40;;;;;;;2.50;77.14;91239.72;2065350;69;20182;-75
2024/02/26 06:18:14;;;;;;;11.88;6.10;;;;;;;2.65;76.17;91238.59;2059133;69;20692;-76
2024/02/26 06:20:40;;;;;;;10.75;6.00;;;;;;;2.62;76.44;91239.78;2065491;69;20141;-77
2024/02/26 06:23:07;;;;;;;11.23;5.80;;;;;;;2.62;76.10;91250.91;2064967;69;20145;-77
2024/02/26 06:25:34;;;;;;;12.13;5.90;;;;;;;2.73;75.85;91238.41;2065386;69;20497;-76
2024/02/26 06:28:00;;;;;;;12.55;6.40;;;;;;;2.85;75.21;91239.19;2065443;69;20145;-76
2024/02/26 06:30:27;;;;;;;12.85;6.35;;;;;;;2.73;75.58;91244.69;2065540;69;20179;-76
2024/02/26 06:32:52;;;;;;;10.00;6.55;;;;;;;2.87;75.96;91233.75;2065155;69;20240;-76
2024/02/26 06:35:18;;;;;;;10.77;6.70;;;;;;;2.74;75.96;91243.34;2064822;69;20293;-76
2024/02/26 06:37:44;;;;;;;12.13;6.88;;;;;;;2.33;77.87;91250.34;2065161;69;20657;-76
2024/02/26 06:43:57;;;;;;;10.73;6.40;;;;;;;3.04;75.37;91260.56;2065503;69;20194;-77
2024/02/26 06:46:25;;;;;;;7.75;4.85;;;;;;;3.05;74.88;91237.72;2064828;69;20232;-78
2024/02/26 06:48:51;;;;;;;9.10;5.53;;;;;;;3.17;75.10;91260.03;2064783;69;20813;-75
2024/02/26 06:51:17;;;;;;;9.82;6.25;;;;;;;2.58;77.24;91252.69;2065247;69;20190;-77
2024/02/26 06:53:43;;;;;;;11.95;5.38;;;;;;;2.61;77.66;91255.03;2064491;69;20137;-78
2024/02/26 06:56:11;;;;;;;11.48;7.85;;;;;;;3.04;76.16;91275.19;2065388;69;20175;-78
2024/02/26 06:58:36;;;;;;;8.43;5.00;;;;;;;2.76;77.31;91279.63;2065364;69;20628;-78
2024/02/26 07:01:04;;;;;;;6.30;4.25;;;;;;;2.98;76.75;91283.16;2064801;69;20665;-77
2024/02/26 07:03:32;;;;;;;8.20;4.80;;;;;;;3.17;76.18;91287.81;2064715;69;20155;-77
2024/02/26 07:05:58;;;;;;;9.15;4.20;;;;;;;3.27;75.46;91277.34;2064559;69;20145;-77
2024/02/26 07:08:23;;;;;;;10.63;4.93;;;;;;;3.08;76.29;91285.13;2064725;69;20147;-77
2024/02/26 07:10:49;;;;;;;9.32;5.10;;;;;;;3.25;75.61;91268.13;2065259;69;20137;-77
2024/02/26 07:13:15;;;;;;;7.05;4.63;;;;;;;3.43;74.85;91274.84;2065208;69;20157;-77
2024/02/26 07:15:41;;;;;;;7.18;4.50;;;;;;;3.45;74.60;91277.06;2056515;69;20161;-77
2024/02/26 07:18:07;;;;;;;8.32;5.10;;;;;;;3.52;74.31;91276.09;2065294;69;20156;-77
2024/02/26 07:20:34;;;;;;;9.93;5.43;;;;;;;3.59;74.49;91285.56;2065347;69;20145;-77
2024/02/26 07:23:00;;;;;;;8.68;5.15;;;;;;;3.64;74.56;91296.34;2065326;69;20157;-77
2024/02/26 07:25:25;;;;;;;8.80;5.45;;;;;;;3.68;73.60;91296.63;2064910;69;20149;-77
2024/02/26 07:27:51;;;;;;;9.82;5.55;;;;;;;3.79;73.50;91295.19;2064614;69;20192;-77
2024/02/26 07:30:16;;;;;;;10.82;5.97;;;;;;;3.77;73.78;91295.06;2065276;69;20183;-77
2024/02/26 07:36:30;;;;;;;11.10;6.63;;;;;;;4.02;73.42;91300.06;2065243;69;20120;-76
2024/02/26 07:38:56;;;;;;;10.10;5.93;;;;;;;4.02;73.99;91300.78;2064642;69;20149;-77
2024/02/26 07:41:22;;;;;;;11.63;6.30;;;;;;;4.14;72.52;91298.03;2065245;69;20140;-77
2024/02/26 07:47:35;;;;;;;11.00;5.90;;;;;;;3.39;76.44;91298.91;2065038;69;20372;-76
2024/02/26 07:50:01;;;;;;;11.85;6.65;;;;;;;3.72;75.79;91293.38;2064963;69;20647;-76
2024/02/26 07:52:28;;;;;;;14.18;6.95;;;;;;;4.05;74.58;91298.88;2065127;69;20156;-76
2024/02/26 07:54:54;;;;;;;13.55;7.18;;;;;;;4.19;74.94;91299.75;2064650;69;20136;-77
2024/02/26 07:57:21;;;;;;;12.75;7.20;;;;;;;4.26;72.98;91275.75;2065181;69;20133;-77
2024/02/26 07:59:49;;;;;;;14.85;7.40;;;;;;;4.54;72.47;91299.06;2065159;69;20151;-77
2024/02/26 08:02:16;;;;;;;11.07;6.78;;;;;;;4.63;71.46;91300.25;2065259;69;20243;-77
2024/02/26 08:04:42;;;;;;;11.73;6.68;;;;;;;4.80;71.34;91297.81;2064783;69;20190;-76
2024/02/26 08:07:08;;;;;;;10.82;6.25;;;;;;;4.87;71.26;91295.41;2065138;69;20141;-76
2024/02/26 08:09:33;;;;;;;11.80;5.65;;;;;;;4.61;73.39;91303.63;2064625;69;20217;-75
2024/02/26 08:11:59;;;;;;;10.32;5.97;;;;;;;4.53;72.79;91292.00;2064941;69;20173;-75
2024/02/26 08:14:24;;;;;;;20.58;8.48;;;;;;;4.70;72.84;91297.22;2065138;69;20149;-77
2024/02/26 08:16:51;;;;;;;18.38;8.50;;;;;;;4.98;72.12;91297.44;2064944;69;20189;-78
2024/02/26 08:19:17;;;;;;;15.50;8.32;;;;;;;5.04;71.80;91290.16;2061609;69;20240;-78
2024/02/26 08:21:46;;;;;;;16.45;7.82;;;;;;;5.31;69.74;91294.44;2065118;69;20160;-78
2024/02/26 08:24:12;;;;;;;13.50;6.45;;;;;;;5.32;71.11;91290.31;2065121;69;20165;-77
2024/02/26 08:26:37;;;;;;;9.00;4.80;;;;;;;5.38;69.97;91289.94;2065077;69;20152;-76
2024/02/26 08:29:03;;;;;;;13.55;7.60;;;;;;;4.92;70.06;91280.34;2065163;69;20486;-76
2024/02/26 08:31:30;;;;;;;12.93;6.35;;;;;;;4.92;70.29;91281.06;2065122;69;20184;-75
2024/02/26 08:33:55;;;;;;;10.02;6.10;;;;;;;4.78;72.82;91285.81;2064976;69;20152;-73
2024/02/26 08:36:21;;;;;;;10.00;6.00;;;;;;;5.08;71.78;91284.06;2064534;69;20152;-74
2024/02/26 08:38:46;;;;;;;10.23;5.88;;;;;;;5.32;70.61;91273.59;2065092;69;20278;-74
2024/02/26 08:41:13;;;;;;;9.48;5.72;;;;;;;5.45;71.12;91286.13;2064628;69;20152;-75
2024/02/26 08:43:38;;;;;;;11.18;6.65;;;;;;;5.62;70.46;91285.72;2065155;69;20587;-77
2024/02/26 08:46:04;;;;;;;10.10;6.28;;;;;;;5.74;69.67;91278.03;2064673;69;20153;-76
2024/02/26 08:48:29;;;;;;;15.80;8.57;;;;;;;5.28;70.28;91273.34;2064456;69;20583;-76
2024/02/26 08:50:55;;;;;;;16.13;7.80;;;;;;;5.32;70.44;91279.16;2065043;69;20275;-76
2024/02/26 08:53:21;;;;;;;14.20;7.47;;;;;;;5.71;70.31;91279.25;2065037;69;20195;-77
2024/02/26 08:55:46;;;;;;;9.10;5.85;;;;;;;5.66;70.02;91274.06;2065018;69;20145;-76
2024/02/26 08:58:12;;;;;;;9.65;5.85;;;;;;;5.89;69.21;91265.56;2065021;69;20137;-74
2024/02/26 09:00:38;;;;;;;10.15;6.25;;;;;;;5.92;68.45;91258.78;2065053;69;20144;-74
2024/02/26 09:03:03;;;;;;;10.57;5.47;;;;;;;5.93;68.03;91262.28;2065049;69;20245;-73
2024/02/26 09:05:29;;;;;;;13.68;7.22;;;;;;;5.98;67.52;91266.75;2065008;69;20156;-76
2024/02/26 09:07:55;;;;;;;10.57;6.30;;;;;;;6.06;67.22;91267.19;2064480;69;20541;-77
2024/02/26 09:10:21;;;;;;;9.95;6.05;;;;;;;6.33;66.53;91269.34;2064912;69;20148;-76
2024/02/26 09:12:47;;;;;;;12.93;6.60;;;;;;;5.75;69.47;91265.50;2064699;69;20152;-75
2024/02/26 09:15:12;;;;;;;10.75;5.80;;;;;;;6.11;68.44;91271.66;2064880;69;20488;-76
2024/02/26 09:17:38;;;;;;;9.13;5.57;;;;;;;6.27;68.66;91269.72;2065430;69;20151;-76
2024/02/26 09:20:05;;;;;;;8.68;5.32;;;;;;;6.06;68.37;91265.13;2064942;69;20149;-79
2024/02/26 09:22:31;;;;;;;9.02;5.60;;;;;;;6.14;68.27;91273.22;2065497;69;20172;-74
2024/02/26 09:28:44;;;;;;;12.50;7.15;;;;;;;6.22;67.94;91276.44;2065612;69;20174;-76
2024/02/26 09:31:10;;;;;;;11.95;6.57;;;;;;;6.20;67.66;91262.38;2065587;69;20497;-76
2024/02/26 09:33:35;;;;;;;11.40;7.40;;;;;;;6.07;68.27;91269.38;2065505;69;20141;-76
2024/02/26 09:36:01;;;;;;;18.75;7.60;;;;;;;6.20;67.59;91253.97;2065618;69;20243;-77
2024/02/26 09:38:27;;;;;;;15.32;8.57;;;;;;;6.65;66.48;91261.91;2065451;69;20236;-75
2024/02/26 09:40:53;;;;;;;16.35;7.65;;;;;;;6.92;66.66;91246.47;2065663;69;20303;-75
2024/02/26 09:43:23;;;;;;;11.05;6.80;;;;;;;6.56;65.95;91243.28;2064643;69;20203;-74
2024/02/26 09:45:52;;;;;;;11.38;6.20;;;;;;;6.66;66.73;91249.38;2065589;69;20202;-75
2024/02/26 09:48:17;;;;;;;12.98;6.72;;;;;;;6.80;65.97;91244.50;2065405;69;20215;-77
2024/02/26 09:50:44;;;;;;;10.70;6.00;;;;;;;7.32;64.60;91247.75;2065559;69;20177;-78
2024/02/26 09:53:14;;;;;;;14.05;6.35;;;;;;;7.51;64.41;91252.91;2062293;69;20161;-74
2024/02/26 09:55:40;;;;;;;11.02;6.18;;;;;;;7.32;64.86;91250.56;2065529;69;20143;-76
2024/02/26 09:58:07;;;;;;;13.82;7.18;;;;;;;7.10;64.76;91250.19;2065166;69;20160;-80
2024/02/26 10:00:37;;;;;;;14.90;6.90;;;;;;;7.45;63.65;91257.50;2065537;69;20148;-75
2024/02/26 10:03:15;;;;;;;13.95;6.95;;;;;;;7.71;63.83;91241.25;2065318;69;20137;-75
2024/02/26 10:05:42;;;;;;;14.02;6.72;;;;;;;7.49;62.19;91252.09;2065514;69;20537;-77
2024/02/26 10:08:09;;;;;;;14.38;6.72;;;;;;;6.61;65.27;91261.72;2065549;69;20532;-75
2024/02/26 10:10:35;;;;;;;14.27;6.40;;;;;;;6.87;63.65;91253.94;2065299;69;20165;-75
2024/02/26 10:13:03;;;;;;;19.13;6.68;;;;;;;7.21;63.39;91262.63;2065369;69;20144;-78
2024/02/26 10:15:29;;;;;;;12.27;6.10;;;;;;;7.56;61.93;91256.63;2064668;69;20171;-77
2024/02/26 10:17:55;;;;;;;14.50;5.82;;;;;;;8.22;61.65;91257.63;2065292;69;20141;-77
2024/02/26 10:24:14;;;;;;;9.00;4.70;;;;;;;9.77;59.13;91244.66;2065520;69;20268;-77
2024/02/26 10:26:46;;;;;;;6.82;4.55;;;;;;;10.64;56.40;91244.50;2065325;69;20624;-74
2024/02/26 10:29:12;;;;;;;12.60;4.70;;;;;;;10.66;54.36;91225.59;2065558;69;20145;-76
2024/02/26 10:31:42;;;;;;;10.38;4.95;;;;;;;11.28;54.58;91213.69;2065491;69;20149;-78
2024/02/26 10:34:08;;;;;;;8.10;4.82;;;;;;;11.22;54.19;91216.28;2062013;69;20518;-76
2024/02/26 10:36:34;;;;;;;8.20;4.45;;;;;;;12.62;52.53;91212.34;2065294;69;20265;-77
2024/02/26 10:39:04;;;;;;;7.13;3.40;;;;;;;12.69;49.42;91216.78;2064915;69;20180;-75
2024/02/26 10:41:31;;;;;;;7.47;3.00;;;;;;;13.34;49.10;91226.41;2065399;69;20164;-74
2024/02/26 10:43:57;;;;;;;8.30;3.13;;;;;;;13.33;45.74;91238.34;2065451;69;20171;-75
2024/02/26 10:46:22;;;;;;;2.47;1.80;;;;;;;13.81;45.19;91238.91;2064988;69;20648;-75
2024/02/26 10:48:50;;;;;;;1.98;1.27;;;;;;;13.41;43.01;91236.47;2065121;69;20149;-75
2024/02/26 10:51:20;;;;;;;2.10;1.40;;;;;;;13.07;43.40;91236.22;2065220;69;20173;-77
2024/02/26 10:53:49;;;;;;;5.10;1.42;;;;;;;13.72;45.32;91237.28;2065281;69;20187;-78
2024/02/26 10:56:17;;;;;;;2.60;1.73;;;;;;;15.75;43.53;91238.25;2064846;69;20151;-76
2024/02/26 10:58:46;;;;;;;4.05;1.65;;;;;;;17.00;39.68;91229.63;2065219;69;20148;-77
2024/02/26 11:01:12;;;;;;;3.53;2.20;;;;;;;17.56;40.75;91233.19;2065274;69;20482;-78
2024/02/26 11:03:39;;;;;;;3.88;2.00;;;;;;;17.52;40.56;91226.03;2065242;69;20597;-78
2024/02/26 11:06:06;;;;;;;3.45;2.30;;;;;;;16.25;39.46;91229.19;2065283;69;20157;-77
2024/02/26 11:08:32;;;;;;;2.15;1.80;;;;;;;17.46;39.49;91228.09;2065452;69;20157;-77
2024/02/26 11:10:58;;;;;;;3.50;2.25;;;;;;;17.86;39.50;91227.13;2065553;69;20220;-77
2024/02/26 11:13:29;;;;;;;5.38;2.20;;;;;;;16.97;39.14;91228.16;2064946;69;20656;-77
2024/02/26 11:15:57;;;;;;;1.75;1.10;;;;;;;18.85;37.01;91232.28;2065436;69;20230;-78
2024/02/26 11:18:27;;;;;;;1.60;1.25;;;;;;;20.41;33.94;91226.50;2065336;69;20622;-75
2024/02/26 11:20:57;;;;;;;2.65;1.80;;;;;;;20.10;34.37;91231.44;2064823;69;20180;-75
2024/02/26 11:23:22;;;;;;;2.80;2.00;;;;;;;19.62;34.85;91206.34;2065130;69;20157;-75
2024/02/26 11:25:52;;;;;;;1.70;1.55;;;;;;;15.84;36.96;91196.56;2065400;69;20160;-77
2024/02/26 11:28:20;;;;;;;1.50;1.27;;;;;;;16.38;38.35;91196.03;2065341;69;20141;-75
2024/02/26 11:30:49;;;;;;;1.75;1.50;;;;;;;15.56;38.71;91182.56;2065303;69;20525;-74
2024/02/26 11:33:16;;;;;;;1.70;1.20;;;;;;;15.28;37.73;91162.91;2065143;69;20156;-74
2024/02/26 11:35:42;;;;;;;3.83;1.13;;;;;;;14.58;39.04;91174.97;2065285;69;20206;-74
2024/02/26 11:38:08;;;;;;;1.85;1.13;;;;;;;14.93;39.34;91170.72;2065124;69;20156;-74
2024/02/26 11:40:41;;;;;;;2.58;1.50;;;;;;;14.81;39.45;91170.50;2065398;69;20180;-77
2024/02/26 11:43:06;;;;;;;2.00;1.10;;;;;;;14.20;39.32;91171.94;2065398;69;20129;-78
2024/02/26 11:45:49;;;;;;;1.75;1.10;;;;;;;14.00;40.37;91180.69;2065408;69;20190;-77
2024/02/26 11:48:17;;;;;;;;;;;;;;;12.93;44.10;91174.41;2065178;69;20168;-78
2024/02/26 11:50:46;;;;;;;3.63;1.42;;;;;;;13.18;43.56;91184.25;2065282;69;20083;-78
2024/02/26 11:53:35;;;;;;;1.73;1.30;;;;;;;12.82;42.99;91192.44;2064437;69;20164;-76
2024/02/26 11:56:21;;;;;;;3.53;1.50;;;;;;;13.10;43.82;91188.97;2064705;69;20144;-77
2024/02/26 11:58:47;;;;;;;3.38;1.65;;;;;;;12.69;43.68;91185.00;2065069;69;20148;-81
2024/02/26 12:01:45;;;;;;;2.08;1.30;;;;;;;12.67;43.87;91177.19;2065081;69;20148;-74
2024/02/26 12:04:19;;;;;;;2.42;1.42;;;;;;;12.71;43.04;91173.78;2065228;69;20173;-80
2024/02/26 12:07:05;;;;;;;1.88;0.90;;;;;;;12.50;44.15;91175.28;2065220;69;20137;-80
2024/02/26 12:09:49;;;;;;;1.45;1.10;;;;;;;12.21;44.40;91170.91;2065176;69;20133;-79
2024/02/26 12:12:19;;;;;;;1.55;1.05;;;;;;;12.59;44.27;91179.78;2064862;69;20137;-79
2024/02/26 12:14:55;;;;;;;2.05;1.10;;;;;;;12.61;44.33;91182.69;2065266;69;20596;-80
2024/02/26 12:17:23;;;;;;;1.77;1.40;;;;;;;12.65;45.37;91187.72;2065206;69;20211;-78
2024/02/26 12:19:48;;;;;;;2.17;1.30;;;;;;;12.16;46.46;91195.44;2065109;69;20224;-75